Mermaid Express — H9PV — position and weather

sailwx.info

Track history (hours):
 
Tides and Currents Weather Stations Pressure Air Temp Water Temp Dewpoint Dewpoint Depression Visibility Wind Speed Wind Dir Waves Ship Positions

Mermaid Express

Last reported at 2015-Dec-20 01:12 UTC. Time now 2016-Feb-13 10:59 UTC.
Position N 28°20' W 093°04'.
Warning: this ship's position is 55 days out of date.

Length 179 m; draft 9.8 m.

Type: Tanker. MMSI: 352866000.

Date/timePositionNaut miles runAvg speedWind from/ knotsBaromVisibWave heightAir tempDewpointWater temp
2015-Dec-20 01:12N 28°20' W 093°04'912.9
2015-Dec-20 00:30N 28°25' W 093°12'1212.7
2015-Dec-19 23:33N 28°32' W 093°23'2912.5
2015-Dec-19 21:16N 28°49' W 093°49'912.5
2015-Dec-19 20:33N 28°51' W 093°59'3610.9
2015-Dec-19 17:14N 29°13' W 094°32'910.0
2015-Dec-19 16:21N 29°19' W 094°39'8 9.6
2015-Dec-19 15:33N 29°22' W 094°48'1110.8
2015-Dec-19 14:33N 29°31' W 094°53'1010.3
2015-Dec-19 13:33N 29°40' W 094°59'7 7.5
2015-Dec-19 12:33N 29°46' W 095°05'5 5.5
2015-Dec-19 11:33N 29°45' W 095°11'2 2.3
2015-Dec-19 10:33N 29°44' W 095°13'0 0.0
2015-Dec-19 09:34N 29°44' W 095°13'0 0.0
2015-Dec-19 08:33N 29°44' W 095°13'0 0.0
2015-Dec-19 07:33N 29°44' W 095°13'0 0.0
2015-Dec-19 06:33N 29°44' W 095°13'0 0.0
2015-Dec-19 05:33N 29°44' W 095°13'0 0.0
2015-Dec-19 04:33N 29°44' W 095°13'0 0.0
2015-Dec-19 03:33N 29°44' W 095°13'0 0.0
2015-Dec-19 02:33N 29°44' W 095°13'0 0.0
2015-Dec-19 01:33N 29°44' W 095°13'0 0.0
2015-Dec-19 00:33N 29°44' W 095°13'0 0.0
2015-Dec-18 23:33N 29°44' W 095°13'0 0.0
2015-Dec-18 22:33N 29°44' W 095°13'0 0.0
2015-Dec-18 21:33N 29°44' W 095°13'0 0.0
2015-Dec-18 20:34N 29°44' W 095°13'0 0.0
2015-Dec-18 19:33N 29°44' W 095°13'0 0.0
2015-Dec-18 18:33N 29°44' W 095°13'0 0.0
2015-Dec-18 17:33N 29°44' W 095°13'0 0.0
2015-Dec-18 16:33N 29°44' W 095°13'0 0.0
2015-Dec-18 15:32N 29°44' W 095°13'0 0.0
2015-Dec-18 14:33N 29°44' W 095°13'0 0.0
2015-Dec-18 13:33N 29°44' W 095°13'0 0.0
2015-Dec-18 12:33N 29°44' W 095°13'0 0.0
2015-Dec-18 11:33N 29°44' W 095°13'0 0.0
2015-Dec-18 10:33N 29°44' W 095°13'0 0.0
2015-Dec-18 09:34N 29°44' W 095°13'0 0.0
2015-Dec-18 08:34N 29°44' W 095°13'0 0.0
2015-Dec-18 07:33N 29°44' W 095°13'0 0.0
2015-Dec-18 06:33N 29°44' W 095°13'0 0.0
2015-Dec-18 05:33N 29°44' W 095°13'0 0.0
2015-Dec-18 04:33N 29°44' W 095°13'0 0.0
2015-Dec-18 03:34N 29°44' W 095°13'0 0.0
2015-Dec-18 02:33N 29°44' W 095°13'0 0.0
2015-Dec-18 01:33N 29°44' W 095°13'0 0.0
2015-Dec-18 00:33N 29°44' W 095°13'0 0.0
2015-Dec-17 23:34N 29°44' W 095°13'0 0.0
2015-Dec-17 22:33N 29°44' W 095°13'0 0.0
2015-Dec-17 21:33N 29°44' W 095°13'0 0.0
2015-Dec-17 20:33N 29°44' W 095°13'0 0.0
2015-Dec-17 19:33N 29°44' W 095°13'0 0.0
2015-Dec-17 18:33N 29°44' W 095°13'0 0.0
2015-Dec-17 17:33N 29°44' W 095°13'0 0.0
2015-Dec-17 16:33N 29°44' W 095°13'0 0.0
2015-Dec-17 15:33N 29°44' W 095°13'0 0.0
2015-Dec-17 14:33N 29°44' W 095°13'0 0.0
2015-Dec-17 13:33N 29°44' W 095°13'0 0.0
2015-Dec-17 12:33N 29°44' W 095°13'0 0.0
2015-Dec-17 11:34N 29°44' W 095°13'0 0.0
2015-Dec-17 10:33N 29°44' W 095°13'0 0.0
2015-Dec-17 09:33N 29°44' W 095°13'0 0.0
2015-Dec-17 08:33N 29°44' W 095°13'0 0.0
2015-Dec-17 07:33N 29°44' W 095°13'0 0.0
2015-Dec-16 23:17N 29°44' W 095°13'0 0.0
2015-Dec-16 22:33N 29°44' W 095°13'0 0.0
2015-Dec-16 21:33N 29°44' W 095°13'  
Track history (hours):
 
Tides and Currents Weather Stations Pressure Air Temp Water Temp Dewpoint Dewpoint Depression Visibility Wind Speed Wind Dir Waves Ship Positions

Mermaid Express

Last reported at 2015-Dec-20 01:12 UTC. Time now 2016-Feb-13 10:59 UTC.
Position N 28°20' W 093°04'.
Warning: this ship's position is 55 days out of date.

Length 179 m; draft 9.8 m.

Type: Tanker. MMSI: 352866000.

Date/timePositionNaut miles runAvg speedWind from/ knotsBaromVisibWave heightAir tempDewpointWater temp
2015-Dec-20 01:12N 28°20' W 093°04'912.9
2015-Dec-20 00:30N 28°25' W 093°12'1212.7
2015-Dec-19 23:33N 28°32' W 093°23'2912.5
2015-Dec-19 21:16N 28°49' W 093°49'912.5
2015-Dec-19 20:33N 28°51' W 093°59'3610.9
2015-Dec-19 17:14N 29°13' W 094°32'910.0
2015-Dec-19 16:21N 29°19' W 094°39'8 9.6
2015-Dec-19 15:33N 29°22' W 094°48'1110.8
2015-Dec-19 14:33N 29°31' W 094°53'1010.3
2015-Dec-19 13:33N 29°40' W 094°59'7 7.5
2015-Dec-19 12:33N 29°46' W 095°05'5 5.5
2015-Dec-19 11:33N 29°45' W 095°11'2 2.3
2015-Dec-19 10:33N 29°44' W 095°13'0 0.0
2015-Dec-19 09:34N 29°44' W 095°13'0 0.0
2015-Dec-19 08:33N 29°44' W 095°13'0 0.0
2015-Dec-19 07:33N 29°44' W 095°13'0 0.0
2015-Dec-19 06:33N 29°44' W 095°13'0 0.0
2015-Dec-19 05:33N 29°44' W 095°13'0 0.0
2015-Dec-19 04:33N 29°44' W 095°13'0 0.0
2015-Dec-19 03:33N 29°44' W 095°13'0 0.0
2015-Dec-19 02:33N 29°44' W 095°13'0 0.0
2015-Dec-19 01:33N 29°44' W 095°13'0 0.0
2015-Dec-19 00:33N 29°44' W 095°13'0 0.0
2015-Dec-18 23:33N 29°44' W 095°13'0 0.0
2015-Dec-18 22:33N 29°44' W 095°13'0 0.0
2015-Dec-18 21:33N 29°44' W 095°13'0 0.0
2015-Dec-18 20:34N 29°44' W 095°13'0 0.0
2015-Dec-18 19:33N 29°44' W 095°13'0 0.0
2015-Dec-18 18:33N 29°44' W 095°13'0 0.0
2015-Dec-18 17:33N 29°44' W 095°13'0 0.0
2015-Dec-18 16:33N 29°44' W 095°13'0 0.0
2015-Dec-18 15:32N 29°44' W 095°13'0 0.0
2015-Dec-18 14:33N 29°44' W 095°13'0 0.0
2015-Dec-18 13:33N 29°44' W 095°13'0 0.0
2015-Dec-18 12:33N 29°44' W 095°13'0 0.0
2015-Dec-18 11:33N 29°44' W 095°13'0 0.0
2015-Dec-18 10:33N 29°44' W 095°13'0 0.0
2015-Dec-18 09:34N 29°44' W 095°13'0 0.0
2015-Dec-18 08:34N 29°44' W 095°13'0 0.0
2015-Dec-18 07:33N 29°44' W 095°13'0 0.0
2015-Dec-18 06:33N 29°44' W 095°13'0 0.0
2015-Dec-18 05:33N 29°44' W 095°13'0 0.0
2015-Dec-18 04:33N 29°44' W 095°13'0 0.0
2015-Dec-18 03:34N 29°44' W 095°13'0 0.0
2015-Dec-18 02:33N 29°44' W 095°13'0 0.0
2015-Dec-18 01:33N 29°44' W 095°13'0 0.0
2015-Dec-18 00:33N 29°44' W 095°13'0 0.0
2015-Dec-17 23:34N 29°44' W 095°13'0 0.0
2015-Dec-17 22:33N 29°44' W 095°13'0 0.0
2015-Dec-17 21:33N 29°44' W 095°13'0 0.0
2015-Dec-17 20:33N 29°44' W 095°13'0 0.0
2015-Dec-17 19:33N 29°44' W 095°13'0 0.0
2015-Dec-17 18:33N 29°44' W 095°13'0 0.0
2015-Dec-17 17:33N 29°44' W 095°13'0 0.0
2015-Dec-17 16:33N 29°44' W 095°13'0 0.0
2015-Dec-17 15:33N 29°44' W 095°13'0 0.0
2015-Dec-17 14:33N 29°44' W 095°13'0 0.0
2015-Dec-17 13:33N 29°44' W 095°13'0 0.0
2015-Dec-17 12:33N 29°44' W 095°13'0 0.0
2015-Dec-17 11:34N 29°44' W 095°13'0 0.0
2015-Dec-17 10:33N 29°44' W 095°13'0 0.0
2015-Dec-17 09:33N 29°44' W 095°13'0 0.0
2015-Dec-17 08:33N 29°44' W 095°13'0 0.0
2015-Dec-17 07:33N 29°44' W 095°13'0 0.0
2015-Dec-16 23:17N 29°44' W 095°13'0 0.0
2015-Dec-16 22:33N 29°44' W 095°13'0 0.0
2015-Dec-16 21:33N 29°44' W 095°13'  

Dump ship's entire track history